Ithaca Tompkins Regional Airport
KITH : now visible

Airfield :











YOU CAN JOIN US ON...

 
LOGIN :

Register | Disclaimer

   EN    FR    IT 

 









Legend :    VFR   Marginal VFR   IFR   Intensive IFR   Very Intensive IFR
Visi :
Ceiling :
>= 8 km
>= 3000ft
5 to 8 km
1000 to 3000 ft
1500m to 5 km
500 to 1000 ft
800 to 1500m
200 to 500 ft
< 800m
< 200 ft
Symbols :   Thunderstorms  Fog  Heavy snow  Heavy precipitations  Wind > 20 kt






- Airport Elevation : 1099 ft
- IATA code : ITH


KITH - Ithaca Tompkins Regional

CURRENT METAR :
  • 200304Z AUTO 21007KT 10SM BKN021 OVC030 11/09 A2997 RMK AO2

EXPIRED METARs :
  • 200256Z AUTO 20007KT 10SM SCT021 BKN030 OVC120 11/09 A2996 RMK AO2 SLP150 T01060089 51006
  • 200156Z AUTO 19010KT 10SM OVC030 11/09 A2996 RMK AO2 SLP148 T01110089
  • 200056Z 18008KT 10SM OVC018 11/08 A2997 RMK AO2 SLP150 T01110083
  • 192356Z 18011KT 10SM OVC035 11/08 A2995 RMK AO2 SLP143 T01110083 10117 20094 53012
  • 192256Z 18011KT 10SM OVC060 12/08 A2992 RMK AO2 SLP135 T01170083

TAF KITH
Valid from the 20 at 00:00 until the 21 at 00:00 UTC


192327Z 2000/2024 18011KT P6SM BKN060
FM200300 26006KT P6SM BKN060
KZNY FIR / North America



MET'MAP, your aeronautical weather chart ! - Copyright ORBIFLY December 2007 - Disclaimer

ORBIFLY MET'MAP TEAM :

Programming & Development : Alexandra Zaïnal
Original concept : Baudouin d'Aumeries
Technical & hardware support : Manuel Goepfert
Assistance : Marc-Olivier Méhu




SOURCES & CREDITS :

   NOAA       Earth
Advisory